Strona główna
METAR-TAF:

METAR-TAF

Lotnisko :

Port lotniczy Lagos

Lagos, Nigeria

Szerokość geograficzna: 06-35N, Długość geograficzna: 003-20E, wysokość: 40 m

Aktualna obserwacja pogody

Raport powstał 44 minut temu, godzina 06:00 UTC
Wiatr 2 kt z kierunków zmiennych
Temperatura 25°C
Wilgotność 94%
Ciśnienie 1015 hPa
Widzialność: 2000 m
Mało chmury na wysokości 1000 ft
zmętnienie

METAR: DNMM 100600Z VRB02KT 2000 HZ FEW010 25/24 Q1015 TEMPO 1500 HZ

czas: 07:44 (06:44 UTC)

Prognoza

Raport powstał 2 godziny i 54 minut temu, godzina 03:50 UTC
Prognoza ważna od 10 godzina 06 UTC do 11 godzina 12 UTC
Wiatr 4 kt od północno-północny zachód
Widzialność: 5000 m
Mało chmury na wysokości 1000 ft
zmętnienie
Przejściowo
od 10 godzina 06 UTC do 10 godzina 09 UTC
Widzialność: 2000 m
Stopniowe zmiany
od 10 godzina 10 UTC do 10 godzina 12 UTC
Wiatr 10 kt od północny wschód
Widzialność: 3500 m

TAF: DNMM 100350Z 1006/1112 33004KT 5000 HZ FEW010 TEMPO 1006/1009 2000 BECMG 1010/1012 04010KT 3500

Obserwacja i prognoza pogody dla ponad 4000 lotnisk (raport METAR i TAF).

Dostępne stacje oznaczono żółtymi i czerwonymi punktami na mapie.

Najedź kursorem aby zobaczyć nazwę stacji.

Kliknij aby zobaczyć obserwacje i prognozy pogody.

Aby zmienić mapę: kliknij na zielony przycisk z czarnym krzyżykiem, aby powiększyć; na zielony przycisk z myślnikiem, aby pomniejszyć; na zielone strzałki, aby przejść do map sąsiednich.


METAR-TAF: